createdAt,value
2019-04-21T00:00:15.476Z,50
2019-04-21T00:05:42.925Z,49
2019-04-21T00:10:32.868Z,50
2019-04-21T00:15:20.085Z,51
2019-04-21T00:20:20.238Z,50
2019-04-21T00:25:23.364Z,51
2019-04-21T00:30:33.856Z,51
2019-04-21T00:35:15.804Z,52
2019-04-21T00:40:34.312Z,52
2019-04-21T00:45:23.243Z,53
2019-04-21T00:50:40.039Z,53
2019-04-21T00:55:38.355Z,54
2019-04-21T01:00:32.183Z,54
2019-04-21T01:05:35.061Z,54
2019-04-21T01:10:24.003Z,54
2019-04-21T01:15:36.761Z,54
2019-04-21T01:20:17.124Z,55
2019-04-21T01:25:19.755Z,55
2019-04-21T01:30:28.218Z,55
2019-04-21T01:35:32.735Z,56
2019-04-21T01:40:33.450Z,56
2019-04-21T01:45:31.543Z,57
2019-04-21T01:50:28.789Z,57
2019-04-21T01:55:28.730Z,58
2019-04-21T02:00:23.269Z,58
2019-04-21T02:05:36.181Z,59
2019-04-21T02:10:39.401Z,59
2019-04-21T02:15:35.847Z,60
2019-04-21T02:20:21.381Z,60
2019-04-21T02:25:31.252Z,61
2019-04-21T02:30:45.247Z,61
2019-04-21T02:35:49.331Z,62
2019-04-21T02:40:44.821Z,63
2019-04-21T02:45:46.396Z,63
2019-04-21T02:50:35.950Z,64
2019-04-21T02:55:43.367Z,65
2019-04-21T03:00:54.655Z,66
2019-04-21T03:05:44.811Z,67
2019-04-21T03:10:43.035Z,69
2019-04-21T03:20:41.895Z,70
2019-04-21T03:31:05.509Z,71
2019-04-21T03:50:38.626Z,77
2019-04-21T04:00:49.389Z,78
2019-04-21T04:10:49.827Z,82
2019-04-21T04:15:45.109Z,84
2019-04-21T04:25:42.220Z,85
2019-04-21T04:30:44.819Z,82
2019-04-21T04:35:52.088Z,78
2019-04-21T04:40:38.092Z,74
2019-04-21T04:45:53.462Z,69
2019-04-21T04:55:54.532Z,58
2019-04-21T05:10:56.612Z,47
2019-04-21T05:15:31.603Z,44
2019-04-21T05:20:41.398Z,42
2019-04-21T05:25:26.167Z,40
2019-04-21T05:30:33.670Z,36
2019-04-21T05:35:31.950Z,35
2019-04-21T05:40:26.243Z,33
2019-04-21T05:45:33.212Z,32
2019-04-21T05:50:26.339Z,32
2019-04-21T05:55:35.661Z,30
2019-04-21T06:00:52.431Z,29
2019-04-21T06:10:34.498Z,27
2019-04-21T06:15:35.891Z,26
2019-04-21T06:20:33.227Z,25
2019-04-21T06:30:38.893Z,23
2019-04-21T06:35:48.104Z,21
2019-04-21T06:40:35.451Z,21
2019-04-21T06:45:39.637Z,21
2019-04-21T06:50:39.384Z,21
2019-04-21T06:55:31.907Z,19
2019-04-21T07:05:33.349Z,19
2019-04-21T07:10:31.610Z,19
2019-04-21T07:15:36.753Z,19
2019-04-21T07:20:36.098Z,18
2019-04-21T07:25:32.426Z,17
2019-04-21T07:30:51.333Z,16
2019-04-21T07:35:31.537Z,16
2019-04-21T07:40:27.203Z,15
2019-04-21T07:45:26.055Z,15
2019-04-21T07:50:31.351Z,15
2019-04-21T08:00:44.607Z,13
2019-04-21T08:05:30.817Z,14
2019-04-21T08:10:25.845Z,13
2019-04-21T08:15:33.576Z,13
2019-04-21T08:20:28.278Z,13
2019-04-21T08:25:34.734Z,12
2019-04-21T08:30:30.183Z,13
2019-04-21T08:40:36.009Z,13
2019-04-21T08:45:35.208Z,13
2019-04-21T08:50:30.408Z,13
2019-04-21T08:55:31.650Z,13
2019-04-21T09:00:32.012Z,14
2019-04-21T09:05:29.176Z,13
2019-04-21T09:10:27.944Z,11
2019-04-21T09:15:30.739Z,11
2019-04-21T09:20:32.385Z,11
2019-04-21T09:25:33.176Z,11
2019-04-21T09:30:12.937Z,11
2019-04-21T09:35:14.670Z,10
2019-04-21T09:40:13.881Z,11
2019-04-21T09:45:12.540Z,10
2019-04-21T09:50:13.245Z,10
2019-04-21T09:55:17.093Z,10
2019-04-21T10:00:14.940Z,11
2019-04-21T10:05:12.354Z,11
2019-04-21T10:10:12.877Z,10
2019-04-21T10:15:11.792Z,10
2019-04-21T10:20:11.926Z,10
2019-04-21T10:25:12.490Z,10
2019-04-21T10:30:12.101Z,10
2019-04-21T10:35:12.853Z,10
2019-04-21T10:40:11.858Z,10
2019-04-21T10:45:12.724Z,11
2019-04-21T10:50:13.017Z,11
2019-04-21T10:55:31.620Z,11
2019-04-21T11:00:13.564Z,11
2019-04-21T11:05:12.482Z,11
2019-04-21T11:10:11.995Z,10
2019-04-21T11:15:11.785Z,10
2019-04-21T11:20:12.882Z,10
2019-04-21T11:25:12.839Z,11
2019-04-21T11:30:11.817Z,10
2019-04-21T11:35:12.903Z,10
2019-04-21T11:40:14.821Z,11
2019-04-21T11:45:12.486Z,11
2019-04-21T11:50:12.854Z,11
2019-04-21T11:55:12.862Z,12
2019-04-21T12:00:11.822Z,11
2019-04-21T12:05:11.878Z,12
2019-04-21T12:10:11.847Z,13
2019-04-21T12:15:13.805Z,16
2019-04-21T12:20:12.681Z,18
2019-04-21T12:25:11.825Z,19
2019-04-21T12:30:11.833Z,19
2019-04-21T12:35:12.253Z,19
2019-04-21T12:40:12.682Z,20
2019-04-21T12:45:12.990Z,19
2019-04-21T12:50:12.855Z,18
2019-04-21T12:55:11.836Z,18
2019-04-21T13:00:13.051Z,19
2019-04-21T13:05:11.870Z,18
2019-04-21T13:10:12.658Z,18
2019-04-21T13:15:11.850Z,18
2019-04-21T13:20:11.876Z,18
2019-04-21T13:25:11.970Z,19
2019-04-21T13:30:12.601Z,19
2019-04-21T13:35:12.896Z,20
2019-04-21T13:40:28.989Z,19
2019-04-21T13:45:12.199Z,20
2019-04-21T13:50:13.122Z,17
2019-04-21T13:55:11.889Z,18
2019-04-21T14:00:13.040Z,19
2019-04-21T14:05:14.157Z,19
2019-04-21T14:10:12.700Z,17
2019-04-21T14:15:12.444Z,18
2019-04-21T14:20:13.110Z,19
2019-04-21T14:25:12.144Z,18
2019-04-21T14:30:12.234Z,20
2019-04-21T14:35:12.465Z,20
2019-04-21T14:40:15.573Z,19
2019-04-21T14:45:12.609Z,20
2019-04-21T14:50:13.473Z,20
2019-04-21T14:55:12.263Z,21
2019-04-21T15:00:13.252Z,22
2019-04-21T15:05:11.881Z,22
2019-04-21T15:10:18.091Z,23
2019-04-21T15:15:11.935Z,23
2019-04-21T15:20:15.739Z,23
2019-04-21T15:25:12.042Z,23
2019-04-21T15:30:11.884Z,23
2019-04-21T15:35:13.107Z,23
2019-04-21T15:40:21.172Z,23
2019-04-21T15:45:12.654Z,23
2019-04-21T15:50:16.157Z,23
2019-04-21T15:55:12.582Z,23
2019-04-21T16:00:12.991Z,23
2019-04-21T16:05:12.961Z,23
2019-04-21T16:10:21.368Z,24
2019-04-21T16:15:12.467Z,24
2019-04-21T16:20:12.199Z,24
2019-04-21T16:25:12.781Z,24
2019-04-21T16:30:12.111Z,25
2019-04-21T16:35:14.089Z,25
2019-04-21T16:40:11.916Z,24
2019-04-21T16:45:12.649Z,24
2019-04-21T16:50:11.907Z,25
2019-04-21T16:55:12.897Z,26
2019-04-21T17:00:12.791Z,26
2019-04-21T17:05:12.203Z,26
2019-04-21T17:10:12.775Z,27
2019-04-21T17:15:28.113Z,28
2019-04-21T17:20:24.950Z,28
2019-04-21T17:25:11.919Z,28
2019-04-21T17:30:12.562Z,28
2019-04-21T17:35:12.176Z,28
2019-04-21T17:40:11.945Z,29
2019-04-21T17:45:13.166Z,29
2019-04-21T17:50:11.903Z,30
2019-04-21T17:55:18.267Z,29
2019-04-21T18:00:49.095Z,29
2019-04-21T18:05:31.776Z,30
2019-04-21T18:10:30.503Z,30
2019-04-21T18:15:28.843Z,31
2019-04-21T18:20:12.225Z,31
2019-04-21T18:25:25.122Z,32
2019-04-21T18:30:12.541Z,32
2019-04-21T18:35:13.943Z,33
2019-04-21T18:40:19.359Z,34
2019-04-21T18:50:12.229Z,34
2019-04-21T18:55:20.945Z,34
2019-04-21T19:00:17.757Z,34
2019-04-21T19:05:15.892Z,35
2019-04-21T19:10:35.177Z,35
2019-04-21T19:15:26.638Z,35
2019-04-21T19:20:29.265Z,35
2019-04-21T19:25:31.186Z,36
2019-04-21T19:30:36.197Z,36
2019-04-21T19:35:13.357Z,36
2019-04-21T19:40:29.701Z,35
2019-04-21T19:45:27.376Z,36
2019-04-21T19:50:34.678Z,36
2019-04-21T19:55:12.122Z,36
2019-04-21T20:00:13.532Z,36
2019-04-21T20:05:17.352Z,37
2019-04-21T20:10:32.600Z,37
2019-04-21T20:15:35.435Z,37
2019-04-21T20:20:13.259Z,37
2019-04-21T20:25:15.944Z,37
2019-04-21T20:30:30.890Z,37
2019-04-21T20:35:37.931Z,37
2019-04-21T20:40:24.673Z,38
2019-04-21T20:45:33.344Z,38
2019-04-21T20:50:27.152Z,38
2019-04-21T20:55:22.255Z,39
2019-04-21T21:00:29.798Z,38
2019-04-21T21:05:25.807Z,38
2019-04-21T21:10:24.936Z,38
2019-04-21T21:20:30.380Z,39
2019-04-21T21:25:33.606Z,40
2019-04-21T21:30:25.889Z,40
2019-04-21T21:35:25.777Z,41
2019-04-21T21:40:29.836Z,41
2019-04-21T21:45:17.636Z,41
2019-04-21T21:50:20.627Z,41
2019-04-21T21:55:12.037Z,42
2019-04-21T22:00:15.278Z,42
2019-04-21T22:05:16.453Z,43
2019-04-21T22:10:12.455Z,43
2019-04-21T22:15:18.452Z,43
2019-04-21T22:20:32.863Z,43
2019-04-21T22:25:20.371Z,43
2019-04-21T22:30:14.594Z,43
2019-04-21T22:35:23.374Z,43
2019-04-21T22:40:20.162Z,43
2019-04-21T22:45:13.423Z,44
2019-04-21T22:50:12.549Z,44
2019-04-21T22:55:19.322Z,45
2019-04-21T23:00:15.250Z,45
2019-04-21T23:05:15.480Z,45
2019-04-21T23:10:12.000Z,45
2019-04-21T23:15:17.022Z,46
2019-04-21T23:20:31.371Z,46
2019-04-21T23:25:25.946Z,47
2019-04-21T23:35:19.385Z,47
2019-04-21T23:40:16.220Z,47
2019-04-21T23:45:12.287Z,47
2019-04-21T23:50:24.620Z,48
2019-04-21T23:55:12.258Z,48
